sensor_id;sensor_type;location;lat;lon;timestamp;P1;durP1;ratioP1;P2;durP2;ratioP2
81969;SDS011;71469;51.826;4.394;2023-07-16T00:00:52;4.18;;;1.60;;
81969;SDS011;71469;51.826;4.394;2023-07-16T00:03:17;4.75;;;2.10;;
81969;SDS011;71469;51.826;4.394;2023-07-16T00:05:43;5.20;;;1.50;;
81969;SDS011;71469;51.826;4.394;2023-07-16T00:08:08;5.87;;;1.30;;
81969;SDS011;71469;51.826;4.394;2023-07-16T00:10:34;6.18;;;1.70;;
81969;SDS011;71469;51.826;4.394;2023-07-16T00:13:01;3.08;;;1.30;;
81969;SDS011;71469;51.826;4.394;2023-07-16T00:15:27;5.15;;;1.65;;
81969;SDS011;71469;51.826;4.394;2023-07-16T00:17:53;5.68;;;1.92;;
81969;SDS011;71469;51.826;4.394;2023-07-16T00:20:20;6.35;;;1.90;;
81969;SDS011;71469;51.826;4.394;2023-07-16T00:22:45;6.13;;;2.00;;
81969;SDS011;71469;51.826;4.394;2023-07-16T00:25:10;9.23;;;1.98;;
81969;SDS011;71469;51.826;4.394;2023-07-16T00:27:36;5.00;;;2.40;;
81969;SDS011;71469;51.826;4.394;2023-07-16T00:30:01;4.57;;;2.20;;
81969;SDS011;71469;51.826;4.394;2023-07-16T00:32:28;7.38;;;2.10;;
81969;SDS011;71469;51.826;4.394;2023-07-16T00:34:53;7.35;;;2.35;;
81969;SDS011;71469;51.826;4.394;2023-07-16T00:37:19;3.57;;;1.50;;
81969;SDS011;71469;51.826;4.394;2023-07-16T00:39:44;5.27;;;2.30;;
81969;SDS011;71469;51.826;4.394;2023-07-16T00:42:09;7.83;;;2.40;;
81969;SDS011;71469;51.826;4.394;2023-07-16T00:44:35;4.35;;;1.45;;
81969;SDS011;71469;51.826;4.394;2023-07-16T00:47:00;5.05;;;2.00;;
81969;SDS011;71469;51.826;4.394;2023-07-16T00:49:26;5.13;;;2.35;;
81969;SDS011;71469;51.826;4.394;2023-07-16T00:51:52;5.13;;;2.08;;
81969;SDS011;71469;51.826;4.394;2023-07-16T00:54:19;4.57;;;2.10;;
81969;SDS011;71469;51.826;4.394;2023-07-16T00:56:44;6.38;;;2.92;;
81969;SDS011;71469;51.826;4.394;2023-07-16T00:59:10;6.45;;;2.28;;
81969;SDS011;71469;51.826;4.394;2023-07-16T01:01:36;7.07;;;2.28;;
81969;SDS011;71469;51.826;4.394;2023-07-16T01:04:03;5.72;;;2.05;;
81969;SDS011;71469;51.826;4.394;2023-07-16T01:09:04;4.38;;;2.40;;
81969;SDS011;71469;51.826;4.394;2023-07-16T01:11:33;3.53;;;2.30;;
81969;SDS011;71469;51.826;4.394;2023-07-16T01:14:02;7.88;;;3.17;;
81969;SDS011;71469;51.826;4.394;2023-07-16T01:16:29;5.10;;;2.70;;
81969;SDS011;71469;51.826;4.394;2023-07-16T01:18:54;8.50;;;2.97;;
81969;SDS011;71469;51.826;4.394;2023-07-16T01:21:20;6.80;;;3.13;;
81969;SDS011;71469;51.826;4.394;2023-07-16T01:26:28;7.75;;;2.65;;
81969;SDS011;71469;51.826;4.394;2023-07-16T01:31:53;6.05;;;2.85;;
81969;SDS011;71469;51.826;4.394;2023-07-16T01:34:20;4.57;;;2.92;;
81969;SDS011;71469;51.826;4.394;2023-07-16T01:36:47;5.03;;;2.47;;
81969;SDS011;71469;51.826;4.394;2023-07-16T01:39:14;7.13;;;3.03;;
81969;SDS011;71469;51.826;4.394;2023-07-16T01:41:40;7.20;;;3.22;;
81969;SDS011;71469;51.826;4.394;2023-07-16T01:44:05;5.40;;;2.85;;
81969;SDS011;71469;51.826;4.394;2023-07-16T01:46:31;6.97;;;3.25;;
81969;SDS011;71469;51.826;4.394;2023-07-16T01:48:57;7.80;;;2.95;;
81969;SDS011;71469;51.826;4.394;2023-07-16T01:51:22;6.30;;;2.70;;
81969;SDS011;71469;51.826;4.394;2023-07-16T01:53:47;6.57;;;3.10;;
81969;SDS011;71469;51.826;4.394;2023-07-16T01:56:13;6.05;;;3.08;;
81969;SDS011;71469;51.826;4.394;2023-07-16T01:58:38;7.25;;;2.80;;
81969;SDS011;71469;51.826;4.394;2023-07-16T02:01:04;7.18;;;2.75;;
81969;SDS011;71469;51.826;4.394;2023-07-16T02:03:29;9.43;;;3.55;;
81969;SDS011;71469;51.826;4.394;2023-07-16T02:05:54;5.35;;;3.15;;
81969;SDS011;71469;51.826;4.394;2023-07-16T02:08:20;7.32;;;2.75;;
81969;SDS011;71469;51.826;4.394;2023-07-16T02:10:48;9.50;;;2.97;;
81969;SDS011;71469;51.826;4.394;2023-07-16T02:13:14;5.93;;;2.83;;
81969;SDS011;71469;51.826;4.394;2023-07-16T02:15:39;5.10;;;2.20;;
81969;SDS011;71469;51.826;4.394;2023-07-16T02:18:05;6.28;;;3.10;;
81969;SDS011;71469;51.826;4.394;2023-07-16T02:20:30;7.85;;;3.10;;
81969;SDS011;71469;51.826;4.394;2023-07-16T02:22:56;5.15;;;3.03;;
81969;SDS011;71469;51.826;4.394;2023-07-16T02:25:21;6.63;;;3.10;;
81969;SDS011;71469;51.826;4.394;2023-07-16T02:27:46;7.87;;;3.27;;
81969;SDS011;71469;51.826;4.394;2023-07-16T02:30:13;6.97;;;2.55;;
81969;SDS011;71469;51.826;4.394;2023-07-16T02:32:39;8.65;;;3.65;;
81969;SDS011;71469;51.826;4.394;2023-07-16T02:35:05;5.80;;;2.80;;
81969;SDS011;71469;51.826;4.394;2023-07-16T02:37:30;4.72;;;2.80;;
81969;SDS011;71469;51.826;4.394;2023-07-16T02:39:56;6.38;;;2.55;;
81969;SDS011;71469;51.826;4.394;2023-07-16T02:42:21;7.88;;;2.75;;
81969;SDS011;71469;51.826;4.394;2023-07-16T02:44:46;8.95;;;2.70;;
81969;SDS011;71469;51.826;4.394;2023-07-16T02:47:12;7.72;;;2.78;;
81969;SDS011;71469;51.826;4.394;2023-07-16T02:49:37;5.43;;;2.85;;
81969;SDS011;71469;51.826;4.394;2023-07-16T02:52:03;8.00;;;2.17;;
81969;SDS011;71469;51.826;4.394;2023-07-16T02:54:29;5.25;;;2.40;;
81969;SDS011;71469;51.826;4.394;2023-07-16T02:56:55;6.38;;;2.55;;
81969;SDS011;71469;51.826;4.394;2023-07-16T02:59:20;7.50;;;3.13;;
81969;SDS011;71469;51.826;4.394;2023-07-16T03:01:45;5.40;;;2.45;;
81969;SDS011;71469;51.826;4.394;2023-07-16T03:04:11;7.37;;;2.80;;
81969;SDS011;71469;51.826;4.394;2023-07-16T03:06:36;8.57;;;2.70;;
81969;SDS011;71469;51.826;4.394;2023-07-16T03:09:02;6.28;;;2.63;;
81969;SDS011;71469;51.826;4.394;2023-07-16T03:11:28;6.47;;;2.72;;
81969;SDS011;71469;51.826;4.394;2023-07-16T03:13:53;7.40;;;2.83;;
81969;SDS011;71469;51.826;4.394;2023-07-16T03:16:19;6.27;;;2.77;;
81969;SDS011;71469;51.826;4.394;2023-07-16T03:18:44;4.88;;;2.45;;
81969;SDS011;71469;51.826;4.394;2023-07-16T03:21:13;5.75;;;3.10;;
81969;SDS011;71469;51.826;4.394;2023-07-16T03:23:38;12.65;;;3.97;;
81969;SDS011;71469;51.826;4.394;2023-07-16T03:26:04;7.73;;;2.97;;
81969;SDS011;71469;51.826;4.394;2023-07-16T03:28:29;7.10;;;3.33;;
81969;SDS011;71469;51.826;4.394;2023-07-16T03:30:54;9.45;;;3.50;;
81969;SDS011;71469;51.826;4.394;2023-07-16T03:33:20;5.40;;;2.90;;
81969;SDS011;71469;51.826;4.394;2023-07-16T03:35:46;6.60;;;2.85;;
81969;SDS011;71469;51.826;4.394;2023-07-16T03:38:12;5.47;;;2.85;;
81969;SDS011;71469;51.826;4.394;2023-07-16T03:40:39;7.13;;;2.78;;
81969;SDS011;71469;51.826;4.394;2023-07-16T03:43:08;6.68;;;3.10;;
81969;SDS011;71469;51.826;4.394;2023-07-16T03:45:33;5.40;;;2.88;;
81969;SDS011;71469;51.826;4.394;2023-07-16T03:47:59;5.18;;;2.63;;
81969;SDS011;71469;51.826;4.394;2023-07-16T03:50:24;7.65;;;3.35;;
81969;SDS011;71469;51.826;4.394;2023-07-16T03:52:49;7.70;;;3.00;;
81969;SDS011;71469;51.826;4.394;2023-07-16T03:55:15;5.22;;;2.80;;
81969;SDS011;71469;51.826;4.394;2023-07-16T03:57:40;5.85;;;3.30;;
81969;SDS011;71469;51.826;4.394;2023-07-16T04:00:06;5.50;;;3.33;;
81969;SDS011;71469;51.826;4.394;2023-07-16T04:02:34;5.43;;;2.67;;
81969;SDS011;71469;51.826;4.394;2023-07-16T04:05:00;5.50;;;3.33;;
81969;SDS011;71469;51.826;4.394;2023-07-16T04:07:25;4.75;;;2.65;;
81969;SDS011;71469;51.826;4.394;2023-07-16T04:09:51;9.10;;;3.30;;
81969;SDS011;71469;51.826;4.394;2023-07-16T04:12:16;6.07;;;2.90;;
81969;SDS011;71469;51.826;4.394;2023-07-16T04:14:42;10.65;;;3.65;;
81969;SDS011;71469;51.826;4.394;2023-07-16T04:17:07;8.77;;;3.30;;
81969;SDS011;71469;51.826;4.394;2023-07-16T04:19:32;5.82;;;2.97;;
81969;SDS011;71469;51.826;4.394;2023-07-16T04:21:59;9.82;;;3.55;;
81969;SDS011;71469;51.826;4.394;2023-07-16T04:24:24;6.10;;;3.30;;
81969;SDS011;71469;51.826;4.394;2023-07-16T04:26:51;7.07;;;3.28;;
81969;SDS011;71469;51.826;4.394;2023-07-16T04:29:17;8.00;;;3.05;;
81969;SDS011;71469;51.826;4.394;2023-07-16T04:31:42;5.70;;;3.20;;
81969;SDS011;71469;51.826;4.394;2023-07-16T04:34:07;7.13;;;2.92;;
81969;SDS011;71469;51.826;4.394;2023-07-16T04:36:33;6.30;;;3.17;;
81969;SDS011;71469;51.826;4.394;2023-07-16T04:38:58;7.38;;;3.83;;
81969;SDS011;71469;51.826;4.394;2023-07-16T04:41:23;5.70;;;3.28;;
81969;SDS011;71469;51.826;4.394;2023-07-16T04:43:49;5.67;;;2.73;;
81969;SDS011;71469;51.826;4.394;2023-07-16T04:46:14;6.67;;;3.20;;
81969;SDS011;71469;51.826;4.394;2023-07-16T04:48:41;5.32;;;3.20;;
81969;SDS011;71469;51.826;4.394;2023-07-16T04:51:06;7.00;;;3.20;;
81969;SDS011;71469;51.826;4.394;2023-07-16T04:53:32;6.03;;;3.43;;
81969;SDS011;71469;51.826;4.394;2023-07-16T04:55:57;8.90;;;4.40;;
81969;SDS011;71469;51.826;4.394;2023-07-16T04:58:22;9.23;;;3.27;;
81969;SDS011;71469;51.826;4.394;2023-07-16T05:00:48;6.57;;;3.60;;
81969;SDS011;71469;51.826;4.394;2023-07-16T05:03:14;7.88;;;3.40;;
81969;SDS011;71469;51.826;4.394;2023-07-16T05:05:39;8.07;;;3.13;;
81969;SDS011;71469;51.826;4.394;2023-07-16T05:08:04;6.40;;;2.78;;
81969;SDS011;71469;51.826;4.394;2023-07-16T05:10:30;6.40;;;3.17;;
81969;SDS011;71469;51.826;4.394;2023-07-16T05:12:55;6.30;;;2.85;;
81969;SDS011;71469;51.826;4.394;2023-07-16T05:15:21;6.03;;;2.87;;
81969;SDS011;71469;51.826;4.394;2023-07-16T05:17:46;5.85;;;3.08;;
81969;SDS011;71469;51.826;4.394;2023-07-16T05:20:12;5.38;;;3.03;;
81969;SDS011;71469;51.826;4.394;2023-07-16T05:22:37;7.27;;;2.93;;
81969;SDS011;71469;51.826;4.394;2023-07-16T05:25:02;7.25;;;2.67;;
81969;SDS011;71469;51.826;4.394;2023-07-16T05:27:28;8.63;;;3.55;;
81969;SDS011;71469;51.826;4.394;2023-07-16T05:29:54;7.90;;;3.58;;
81969;SDS011;71469;51.826;4.394;2023-07-16T05:32:19;5.50;;;3.15;;
81969;SDS011;71469;51.826;4.394;2023-07-16T05:34:45;6.93;;;3.70;;
81969;SDS011;71469;51.826;4.394;2023-07-16T05:37:11;10.13;;;3.35;;
81969;SDS011;71469;51.826;4.394;2023-07-16T05:39:37;4.75;;;2.83;;
81969;SDS011;71469;51.826;4.394;2023-07-16T05:42:02;7.72;;;3.55;;
81969;SDS011;71469;51.826;4.394;2023-07-16T05:44:28;6.43;;;3.40;;
81969;SDS011;71469;51.826;4.394;2023-07-16T05:46:54;5.85;;;2.63;;
81969;SDS011;71469;51.826;4.394;2023-07-16T05:49:19;5.05;;;3.38;;
81969;SDS011;71469;51.826;4.394;2023-07-16T05:51:44;7.55;;;3.47;;
81969;SDS011;71469;51.826;4.394;2023-07-16T05:54:10;9.30;;;3.80;;
81969;SDS011;71469;51.826;4.394;2023-07-16T05:56:35;9.07;;;4.22;;
81969;SDS011;71469;51.826;4.394;2023-07-16T05:59:00;6.43;;;3.20;;
81969;SDS011;71469;51.826;4.394;2023-07-16T06:01:26;9.27;;;3.53;;
81969;SDS011;71469;51.826;4.394;2023-07-16T06:03:51;7.15;;;3.25;;
81969;SDS011;71469;51.826;4.394;2023-07-16T06:06:16;6.13;;;3.20;;
81969;SDS011;71469;51.826;4.394;2023-07-16T06:08:42;9.83;;;4.53;;
81969;SDS011;71469;51.826;4.394;2023-07-16T06:11:07;8.20;;;3.03;;
81969;SDS011;71469;51.826;4.394;2023-07-16T06:13:32;5.35;;;2.92;;
81969;SDS011;71469;51.826;4.394;2023-07-16T06:15:58;7.67;;;3.23;;
81969;SDS011;71469;51.826;4.394;2023-07-16T06:18:23;8.70;;;3.58;;
81969;SDS011;71469;51.826;4.394;2023-07-16T06:20:48;10.20;;;3.57;;
81969;SDS011;71469;51.826;4.394;2023-07-16T06:23:15;10.60;;;3.38;;
81969;SDS011;71469;51.826;4.394;2023-07-16T06:25:41;6.50;;;3.50;;
81969;SDS011;71469;51.826;4.394;2023-07-16T06:28:11;7.28;;;3.40;;
81969;SDS011;71469;51.826;4.394;2023-07-16T06:30:37;8.07;;;3.30;;
81969;SDS011;71469;51.826;4.394;2023-07-16T06:33:03;7.35;;;3.60;;
81969;SDS011;71469;51.826;4.394;2023-07-16T06:35:28;5.47;;;3.20;;
81969;SDS011;71469;51.826;4.394;2023-07-16T06:37:53;6.30;;;3.00;;
81969;SDS011;71469;51.826;4.394;2023-07-16T06:40:19;7.90;;;3.33;;
81969;SDS011;71469;51.826;4.394;2023-07-16T06:42:44;6.13;;;3.67;;
81969;SDS011;71469;51.826;4.394;2023-07-16T06:45:09;5.67;;;2.90;;
81969;SDS011;71469;51.826;4.394;2023-07-16T06:47:35;8.07;;;3.53;;
81969;SDS011;71469;51.826;4.394;2023-07-16T06:50:00;8.60;;;3.50;;
81969;SDS011;71469;51.826;4.394;2023-07-16T06:52:25;9.00;;;4.18;;
81969;SDS011;71469;51.826;4.394;2023-07-16T06:54:52;8.48;;;3.97;;
81969;SDS011;71469;51.826;4.394;2023-07-16T06:57:18;8.85;;;3.45;;
81969;SDS011;71469;51.826;4.394;2023-07-16T06:59:44;8.82;;;3.65;;
81969;SDS011;71469;51.826;4.394;2023-07-16T07:02:09;9.40;;;4.07;;
81969;SDS011;71469;51.826;4.394;2023-07-16T07:04:35;13.40;;;4.28;;
81969;SDS011;71469;51.826;4.394;2023-07-16T07:07:00;7.67;;;3.90;;
81969;SDS011;71469;51.826;4.394;2023-07-16T07:09:25;7.00;;;4.03;;
81969;SDS011;71469;51.826;4.394;2023-07-16T07:11:51;10.17;;;3.77;;
81969;SDS011;71469;51.826;4.394;2023-07-16T07:14:16;6.27;;;3.47;;
81969;SDS011;71469;51.826;4.394;2023-07-16T07:16:41;10.67;;;3.60;;
81969;SDS011;71469;51.826;4.394;2023-07-16T07:19:07;6.10;;;3.70;;
81969;SDS011;71469;51.826;4.394;2023-07-16T07:21:33;8.63;;;4.43;;
81969;SDS011;71469;51.826;4.394;2023-07-16T07:23:58;8.07;;;3.57;;
81969;SDS011;71469;51.826;4.394;2023-07-16T07:26:24;7.43;;;3.73;;
81969;SDS011;71469;51.826;4.394;2023-07-16T07:28:49;5.57;;;3.50;;
81969;SDS011;71469;51.826;4.394;2023-07-16T07:31:15;8.00;;;4.10;;
81969;SDS011;71469;51.826;4.394;2023-07-16T07:33:40;10.10;;;3.90;;
81969;SDS011;71469;51.826;4.394;2023-07-16T07:36:05;8.45;;;3.95;;
81969;SDS011;71469;51.826;4.394;2023-07-16T07:38:31;9.48;;;4.25;;
81969;SDS011;71469;51.826;4.394;2023-07-16T07:40:56;9.33;;;4.00;;
81969;SDS011;71469;51.826;4.394;2023-07-16T07:43:21;6.30;;;3.87;;
81969;SDS011;71469;51.826;4.394;2023-07-16T07:45:47;9.40;;;3.90;;
81969;SDS011;71469;51.826;4.394;2023-07-16T07:48:12;8.17;;;3.67;;
81969;SDS011;71469;51.826;4.394;2023-07-16T07:50:37;7.83;;;3.43;;
81969;SDS011;71469;51.826;4.394;2023-07-16T07:53:03;8.25;;;3.97;;
81969;SDS011;71469;51.826;4.394;2023-07-16T07:55:28;8.43;;;3.90;;
81969;SDS011;71469;51.826;4.394;2023-07-16T07:57:53;7.87;;;4.07;;
81969;SDS011;71469;51.826;4.394;2023-07-16T08:00:20;7.20;;;3.65;;
81969;SDS011;71469;51.826;4.394;2023-07-16T08:02:45;8.48;;;4.20;;
81969;SDS011;71469;51.826;4.394;2023-07-16T08:05:10;7.27;;;4.00;;
81969;SDS011;71469;51.826;4.394;2023-07-16T08:07:36;7.10;;;3.38;;
81969;SDS011;71469;51.826;4.394;2023-07-16T08:10:01;9.43;;;4.10;;
81969;SDS011;71469;51.826;4.394;2023-07-16T08:12:26;8.88;;;3.95;;
81969;SDS011;71469;51.826;4.394;2023-07-16T08:14:52;11.68;;;4.15;;
81969;SDS011;71469;51.826;4.394;2023-07-16T08:17:17;7.13;;;3.53;;
81969;SDS011;71469;51.826;4.394;2023-07-16T08:19:42;7.67;;;3.87;;
81969;SDS011;71469;51.826;4.394;2023-07-16T08:22:08;7.57;;;3.83;;
81969;SDS011;71469;51.826;4.394;2023-07-16T08:24:33;8.43;;;4.20;;
81969;SDS011;71469;51.826;4.394;2023-07-16T08:26:58;8.17;;;3.07;;
81969;SDS011;71469;51.826;4.394;2023-07-16T08:29:24;8.73;;;4.67;;
81969;SDS011;71469;51.826;4.394;2023-07-16T08:31:50;7.43;;;3.75;;
81969;SDS011;71469;51.826;4.394;2023-07-16T08:34:16;8.45;;;3.50;;
81969;SDS011;71469;51.826;4.394;2023-07-16T08:36:41;9.53;;;4.03;;
81969;SDS011;71469;51.826;4.394;2023-07-16T08:39:08;9.98;;;3.50;;
81969;SDS011;71469;51.826;4.394;2023-07-16T08:41:34;6.60;;;4.10;;
81969;SDS011;71469;51.826;4.394;2023-07-16T08:43:59;7.38;;;3.63;;
81969;SDS011;71469;51.826;4.394;2023-07-16T08:46:25;8.38;;;3.67;;
81969;SDS011;71469;51.826;4.394;2023-07-16T08:48:51;9.65;;;4.30;;
81969;SDS011;71469;51.826;4.394;2023-07-16T08:51:18;7.60;;;3.78;;
81969;SDS011;71469;51.826;4.394;2023-07-16T08:53:46;6.13;;;3.55;;
81969;SDS011;71469;51.826;4.394;2023-07-16T08:56:11;9.13;;;3.83;;
81969;SDS011;71469;51.826;4.394;2023-07-16T08:58:37;7.93;;;3.40;;
81969;SDS011;71469;51.826;4.394;2023-07-16T09:01:03;6.68;;;3.20;;
81969;SDS011;71469;51.826;4.394;2023-07-16T09:03:30;6.78;;;3.70;;
81969;SDS011;71469;51.826;4.394;2023-07-16T09:05:56;7.40;;;3.20;;
81969;SDS011;71469;51.826;4.394;2023-07-16T09:08:21;5.05;;;3.00;;
81969;SDS011;71469;51.826;4.394;2023-07-16T09:10:55;6.32;;;2.90;;
81969;SDS011;71469;51.826;4.394;2023-07-16T09:13:21;21.02;;;7.78;;
81969;SDS011;71469;51.826;4.394;2023-07-16T09:15:51;17.60;;;5.60;;
81969;SDS011;71469;51.826;4.394;2023-07-16T09:18:21;14.48;;;4.70;;
81969;SDS011;71469;51.826;4.394;2023-07-16T09:20:47;9.60;;;4.13;;
81969;SDS011;71469;51.826;4.394;2023-07-16T09:23:15;13.63;;;5.18;;
81969;SDS011;71469;51.826;4.394;2023-07-16T09:25:42;10.07;;;4.20;;
81969;SDS011;71469;51.826;4.394;2023-07-16T09:28:08;10.50;;;4.03;;
81969;SDS011;71469;51.826;4.394;2023-07-16T09:30:34;8.07;;;3.77;;
81969;SDS011;71469;51.826;4.394;2023-07-16T09:33:15;6.72;;;3.40;;
81969;SDS011;71469;51.826;4.394;2023-07-16T09:35:42;7.95;;;3.00;;
81969;SDS011;71469;51.826;4.394;2023-07-16T09:38:08;8.50;;;3.22;;
81969;SDS011;71469;51.826;4.394;2023-07-16T09:40:35;6.10;;;3.22;;
81969;SDS011;71469;51.826;4.394;2023-07-16T09:43:01;7.35;;;2.70;;
81969;SDS011;71469;51.826;4.394;2023-07-16T09:45:28;9.43;;;3.80;;
81969;SDS011;71469;51.826;4.394;2023-07-16T09:47:53;6.45;;;3.17;;
81969;SDS011;71469;51.826;4.394;2023-07-16T09:50:18;5.78;;;3.33;;
81969;SDS011;71469;51.826;4.394;2023-07-16T09:52:45;7.03;;;3.20;;
81969;SDS011;71469;51.826;4.394;2023-07-16T09:55:12;6.10;;;3.25;;
81969;SDS011;71469;51.826;4.394;2023-07-16T09:57:41;5.55;;;2.70;;
81969;SDS011;71469;51.826;4.394;2023-07-16T10:00:11;7.43;;;2.75;;
81969;SDS011;71469;51.826;4.394;2023-07-16T10:02:38;6.22;;;2.30;;
81969;SDS011;71469;51.826;4.394;2023-07-16T10:05:18;5.32;;;2.75;;
81969;SDS011;71469;51.826;4.394;2023-07-16T10:07:54;8.10;;;2.75;;
81969;SDS011;71469;51.826;4.394;2023-07-16T10:10:25;5.50;;;1.92;;
81969;SDS011;71469;51.826;4.394;2023-07-16T10:13:02;3.70;;;2.00;;
81969;SDS011;71469;51.826;4.394;2023-07-16T10:15:28;3.60;;;2.25;;
81969;SDS011;71469;51.826;4.394;2023-07-16T10:17:54;11.15;;;3.08;;
81969;SDS011;71469;51.826;4.394;2023-07-16T10:20:30;4.40;;;2.30;;
81969;SDS011;71469;51.826;4.394;2023-07-16T10:23:13;5.70;;;2.53;;
81969;SDS011;71469;51.826;4.394;2023-07-16T10:25:40;5.25;;;2.28;;
81969;SDS011;71469;51.826;4.394;2023-07-16T10:28:22;4.20;;;2.40;;
81969;SDS011;71469;51.826;4.394;2023-07-16T10:30:49;5.13;;;2.35;;
81969;SDS011;71469;51.826;4.394;2023-07-16T10:33:14;5.22;;;1.98;;
81969;SDS011;71469;51.826;4.394;2023-07-16T10:35:44;6.43;;;2.08;;
81969;SDS011;71469;51.826;4.394;2023-07-16T10:38:10;4.35;;;1.90;;
81969;SDS011;71469;51.826;4.394;2023-07-16T10:40:45;3.15;;;1.60;;
81969;SDS011;71469;51.826;4.394;2023-07-16T10:43:11;4.28;;;2.13;;
81969;SDS011;71469;51.826;4.394;2023-07-16T10:45:37;5.57;;;2.28;;
81969;SDS011;71469;51.826;4.394;2023-07-16T10:48:02;5.82;;;2.22;;
81969;SDS011;71469;51.826;4.394;2023-07-16T10:50:28;4.65;;;2.50;;
81969;SDS011;71469;51.826;4.394;2023-07-16T10:52:54;4.90;;;2.35;;
81969;SDS011;71469;51.826;4.394;2023-07-16T10:55:21;5.93;;;2.08;;
81969;SDS011;71469;51.826;4.394;2023-07-16T10:57:48;4.35;;;2.28;;
81969;SDS011;71469;51.826;4.394;2023-07-16T11:00:14;4.18;;;1.77;;
81969;SDS011;71469;51.826;4.394;2023-07-16T11:02:40;4.25;;;1.88;;
81969;SDS011;71469;51.826;4.394;2023-07-16T11:05:11;3.67;;;2.00;;
81969;SDS011;71469;51.826;4.394;2023-07-16T11:07:47;2.78;;;1.38;;
81969;SDS011;71469;51.826;4.394;2023-07-16T11:10:17;3.75;;;2.47;;
81969;SDS011;71469;51.826;4.394;2023-07-16T11:12:43;3.88;;;1.27;;
81969;SDS011;71469;51.826;4.394;2023-07-16T11:15:09;3.75;;;1.48;;
81969;SDS011;71469;51.826;4.394;2023-07-16T11:17:36;3.85;;;1.55;;
81969;SDS011;71469;51.826;4.394;2023-07-16T11:20:03;2.97;;;1.30;;
81969;SDS011;71469;51.826;4.394;2023-07-16T11:22:32;2.10;;;1.20;;
81969;SDS011;71469;51.826;4.394;2023-07-16T11:25:01;2.75;;;1.40;;
81969;SDS011;71469;51.826;4.394;2023-07-16T11:27:29;3.05;;;1.02;;
81969;SDS011;71469;51.826;4.394;2023-07-16T11:29:57;2.75;;;1.60;;
81969;SDS011;71469;51.826;4.394;2023-07-16T11:34:55;1.67;;;1.00;;
81969;SDS011;71469;51.826;4.394;2023-07-16T11:37:21;3.13;;;1.02;;
81969;SDS011;71469;51.826;4.394;2023-07-16T11:39:47;2.00;;;1.05;;
81969;SDS011;71469;51.826;4.394;2023-07-16T11:42:13;6.43;;;1.40;;
81969;SDS011;71469;51.826;4.394;2023-07-16T11:44:38;5.88;;;1.42;;
81969;SDS011;71469;51.826;4.394;2023-07-16T11:47:04;4.03;;;1.10;;
81969;SDS011;71469;51.826;4.394;2023-07-16T11:49:29;6.85;;;1.40;;
81969;SDS011;71469;51.826;4.394;2023-07-16T11:51:56;5.53;;;1.20;;
81969;SDS011;71469;51.826;4.394;2023-07-16T11:54:21;3.72;;;1.15;;
81969;SDS011;71469;51.826;4.394;2023-07-16T11:56:46;1.67;;;0.97;;
81969;SDS011;71469;51.826;4.394;2023-07-16T11:59:13;3.42;;;1.42;;
81969;SDS011;71469;51.826;4.394;2023-07-16T12:01:38;4.68;;;1.02;;
81969;SDS011;71469;51.826;4.394;2023-07-16T12:04:04;1.73;;;1.00;;
81969;SDS011;71469;51.826;4.394;2023-07-16T12:06:29;4.23;;;1.43;;
81969;SDS011;71469;51.826;4.394;2023-07-16T12:08:54;2.83;;;1.60;;
81969;SDS011;71469;51.826;4.394;2023-07-16T12:11:20;3.72;;;0.95;;
81969;SDS011;71469;51.826;4.394;2023-07-16T12:13:46;5.05;;;1.27;;
81969;SDS011;71469;51.826;4.394;2023-07-16T12:16:12;4.57;;;0.90;;
81969;SDS011;71469;51.826;4.394;2023-07-16T12:18:37;3.85;;;1.30;;
81969;SDS011;71469;51.826;4.394;2023-07-16T12:21:02;6.07;;;1.30;;
81969;SDS011;71469;51.826;4.394;2023-07-16T12:23:28;4.88;;;0.90;;
81969;SDS011;71469;51.826;4.394;2023-07-16T12:25:53;2.27;;;0.83;;
81969;SDS011;71469;51.826;4.394;2023-07-16T12:28:18;6.17;;;1.43;;
81969;SDS011;71469;51.826;4.394;2023-07-16T12:30:43;3.38;;;1.10;;
81969;SDS011;71469;51.826;4.394;2023-07-16T12:33:09;5.80;;;1.17;;
81969;SDS011;71469;51.826;4.394;2023-07-16T12:35:34;3.90;;;1.27;;
81969;SDS011;71469;51.826;4.394;2023-07-16T12:37:59;5.03;;;1.30;;
81969;SDS011;71469;51.826;4.394;2023-07-16T12:40:25;4.93;;;1.33;;
81969;SDS011;71469;51.826;4.394;2023-07-16T12:42:53;4.75;;;0.82;;
81969;SDS011;71469;51.826;4.394;2023-07-16T12:45:18;3.57;;;1.30;;
81969;SDS011;71469;51.826;4.394;2023-07-16T12:47:44;3.47;;;1.00;;
81969;SDS011;71469;51.826;4.394;2023-07-16T12:50:10;4.97;;;1.07;;
81969;SDS011;71469;51.826;4.394;2023-07-16T12:52:35;3.33;;;1.10;;
81969;SDS011;71469;51.826;4.394;2023-07-16T12:55:01;4.47;;;1.42;;
81969;SDS011;71469;51.826;4.394;2023-07-16T12:57:26;6.50;;;1.30;;
81969;SDS011;71469;51.826;4.394;2023-07-16T12:59:51;4.60;;;1.00;;
81969;SDS011;71469;51.826;4.394;2023-07-16T13:02:16;6.60;;;1.53;;
81969;SDS011;71469;51.826;4.394;2023-07-16T13:04:44;5.70;;;1.20;;
81969;SDS011;71469;51.826;4.394;2023-07-16T13:07:10;3.80;;;1.20;;
81969;SDS011;71469;51.826;4.394;2023-07-16T13:09:35;3.10;;;1.02;;
81969;SDS011;71469;51.826;4.394;2023-07-16T13:12:00;4.63;;;1.03;;
81969;SDS011;71469;51.826;4.394;2023-07-16T13:14:26;3.03;;;1.10;;
81969;SDS011;71469;51.826;4.394;2023-07-16T13:16:51;4.90;;;1.13;;
81969;SDS011;71469;51.826;4.394;2023-07-16T13:19:16;3.70;;;1.13;;
81969;SDS011;71469;51.826;4.394;2023-07-16T13:21:42;3.97;;;1.03;;
81969;SDS011;71469;51.826;4.394;2023-07-16T13:24:07;3.35;;;0.85;;
81969;SDS011;71469;51.826;4.394;2023-07-16T13:26:33;4.57;;;1.23;;
81969;SDS011;71469;51.826;4.394;2023-07-16T13:28:58;6.03;;;1.42;;
81969;SDS011;71469;51.826;4.394;2023-07-16T13:31:24;3.70;;;0.97;;
81969;SDS011;71469;51.826;4.394;2023-07-16T13:33:49;5.57;;;1.23;;
81969;SDS011;71469;51.826;4.394;2023-07-16T13:36:14;6.30;;;1.52;;
81969;SDS011;71469;51.826;4.394;2023-07-16T13:38:40;6.78;;;2.40;;
81969;SDS011;71469;51.826;4.394;2023-07-16T13:41:05;7.40;;;1.50;;
81969;SDS011;71469;51.826;4.394;2023-07-16T13:43:30;5.23;;;1.43;;
81969;SDS011;71469;51.826;4.394;2023-07-16T13:45:56;6.43;;;1.40;;
81969;SDS011;71469;51.826;4.394;2023-07-16T13:48:21;5.90;;;1.60;;
81969;SDS011;71469;51.826;4.394;2023-07-16T13:50:46;7.38;;;1.88;;
81969;SDS011;71469;51.826;4.394;2023-07-16T13:53:12;5.70;;;1.50;;
81969;SDS011;71469;51.826;4.394;2023-07-16T13:55:37;5.03;;;1.70;;
81969;SDS011;71469;51.826;4.394;2023-07-16T13:58:02;6.25;;;1.70;;
81969;SDS011;71469;51.826;4.394;2023-07-16T14:00:28;5.70;;;1.57;;
81969;SDS011;71469;51.826;4.394;2023-07-16T14:02:53;7.30;;;1.95;;
81969;SDS011;71469;51.826;4.394;2023-07-16T14:05:18;7.27;;;1.50;;
81969;SDS011;71469;51.826;4.394;2023-07-16T14:07:44;7.35;;;1.63;;
81969;SDS011;71469;51.826;4.394;2023-07-16T14:10:10;3.80;;;1.70;;
81969;SDS011;71469;51.826;4.394;2023-07-16T14:12:35;5.13;;;1.50;;
81969;SDS011;71469;51.826;4.394;2023-07-16T14:15:00;7.13;;;1.50;;
81969;SDS011;71469;51.826;4.394;2023-07-16T14:17:26;6.68;;;1.77;;
81969;SDS011;71469;51.826;4.394;2023-07-16T14:19:51;4.28;;;1.70;;
81969;SDS011;71469;51.826;4.394;2023-07-16T14:22:17;4.60;;;1.95;;
81969;SDS011;71469;51.826;4.394;2023-07-16T14:24:43;7.05;;;1.92;;
81969;SDS011;71469;51.826;4.394;2023-07-16T14:27:08;6.75;;;2.42;;
81969;SDS011;71469;51.826;4.394;2023-07-16T14:29:34;6.13;;;1.60;;
81969;SDS011;71469;51.826;4.394;2023-07-16T14:32:00;6.90;;;1.52;;
81969;SDS011;71469;51.826;4.394;2023-07-16T14:34:25;6.85;;;1.67;;
81969;SDS011;71469;51.826;4.394;2023-07-16T14:36:51;6.20;;;1.73;;
81969;SDS011;71469;51.826;4.394;2023-07-16T14:39:17;4.78;;;1.55;;
81969;SDS011;71469;51.826;4.394;2023-07-16T14:41:42;8.50;;;2.20;;
81969;SDS011;71469;51.826;4.394;2023-07-16T14:44:08;7.35;;;1.80;;
81969;SDS011;71469;51.826;4.394;2023-07-16T14:46:33;8.07;;;1.73;;
81969;SDS011;71469;51.826;4.394;2023-07-16T14:48:59;5.13;;;1.88;;
81969;SDS011;71469;51.826;4.394;2023-07-16T14:51:24;4.90;;;1.85;;